createdAt,value
2019-02-15T00:00:30.065Z,39.70
2019-02-15T00:02:58.308Z,39.80
2019-02-15T00:05:26.555Z,39.80
2019-02-15T00:07:54.769Z,39.80
2019-02-15T00:10:23.280Z,39.80
2019-02-15T00:12:51.538Z,39.80
2019-02-15T00:15:20.026Z,40.50
2019-02-15T00:17:52.821Z,39.90
2019-02-15T00:20:28.415Z,39.90
2019-02-15T00:22:56.655Z,39.90
2019-02-15T00:25:24.901Z,39.90
2019-02-15T00:27:53.155Z,39.90
2019-02-15T00:30:21.360Z,39.90
2019-02-15T00:32:49.600Z,40.00
2019-02-15T00:35:17.831Z,40.00
2019-02-15T00:37:46.314Z,39.90
2019-02-15T00:40:14.561Z,39.90
2019-02-15T00:42:43.110Z,39.90
2019-02-15T00:45:13.004Z,39.90
2019-02-15T00:47:42.863Z,39.90
2019-02-15T00:50:15.904Z,40.00
2019-02-15T00:52:51.921Z,39.90
2019-02-15T00:55:21.805Z,39.90
2019-02-15T00:58:07.971Z,40.00
2019-02-15T01:00:40.804Z,40.00
2019-02-15T01:03:28.481Z,40.00
2019-02-15T01:06:04.007Z,40.00
2019-02-15T01:08:36.529Z,40.10
2019-02-15T01:11:18.455Z,40.10
2019-02-15T01:13:46.691Z,40.20
2019-02-15T01:16:14.927Z,40.20
2019-02-15T01:18:43.284Z,40.20
2019-02-15T01:21:11.501Z,40.20
2019-02-15T01:23:39.736Z,40.20
2019-02-15T01:26:21.471Z,40.30
2019-02-15T01:29:00.041Z,40.30
2019-02-15T01:31:46.163Z,40.50
2019-02-15T01:34:16.039Z,40.30
2019-02-15T01:36:48.607Z,40.40
2019-02-15T01:39:34.840Z,40.40
2019-02-15T01:42:04.695Z,40.50
2019-02-15T01:44:43.527Z,40.50
2019-02-15T01:47:13.364Z,40.50
2019-02-15T01:49:41.596Z,40.60
2019-02-15T01:52:09.821Z,40.50
2019-02-15T01:54:38.289Z,40.60
2019-02-15T01:57:06.534Z,40.60
2019-02-15T01:59:34.773Z,40.70
2019-02-15T02:02:03.028Z,40.60
2019-02-15T02:04:31.257Z,40.60
2019-02-15T02:06:59.499Z,40.70
2019-02-15T02:09:27.751Z,40.80
2019-02-15T02:11:55.993Z,40.80
2019-02-15T02:14:24.231Z,40.80
2019-02-15T02:16:52.451Z,40.80
2019-02-15T02:19:20.676Z,40.80
2019-02-15T02:21:48.932Z,40.80
2019-02-15T02:24:17.151Z,40.80
2019-02-15T02:26:45.382Z,40.80
2019-02-15T02:29:13.603Z,40.80
2019-02-15T02:31:41.844Z,40.80
2019-02-15T02:34:10.068Z,41.00
2019-02-15T02:36:52.736Z,41.00
2019-02-15T02:39:21.022Z,41.00
2019-02-15T02:41:49.262Z,41.00
2019-02-15T02:44:17.501Z,41.00
2019-02-15T02:46:46.004Z,41.10
2019-02-15T02:49:14.260Z,41.10
2019-02-15T02:51:42.527Z,41.10
2019-02-15T02:54:10.782Z,41.10
2019-02-15T02:56:39.037Z,41.10
2019-02-15T02:59:07.263Z,41.10
2019-02-15T03:01:35.495Z,41.10
2019-02-15T03:04:03.728Z,41.10
2019-02-15T03:06:31.958Z,41.20
2019-02-15T03:09:00.197Z,41.30
2019-02-15T03:11:28.431Z,41.20
2019-02-15T03:13:56.682Z,41.20
2019-02-15T03:16:25.163Z,41.20
2019-02-15T03:18:53.399Z,41.20
2019-02-15T03:21:21.657Z,41.20
2019-02-15T03:23:49.873Z,41.20
2019-02-15T03:26:18.124Z,41.20
2019-02-15T03:28:46.349Z,41.20
2019-02-15T03:31:14.601Z,41.20
2019-02-15T03:33:42.838Z,41.20
2019-02-15T03:36:12.724Z,41.20
2019-02-15T03:38:42.577Z,41.20
2019-02-15T03:41:12.472Z,41.20
2019-02-15T03:43:40.709Z,41.20
2019-02-15T03:46:09.152Z,41.20
2019-02-15T03:48:37.620Z,41.20
2019-02-15T03:51:05.868Z,41.20
2019-02-15T03:53:34.083Z,41.20
2019-02-15T03:56:02.417Z,41.20
2019-02-15T03:58:30.866Z,41.20
2019-02-15T04:00:59.087Z,41.20
2019-02-15T04:03:27.345Z,41.20
2019-02-15T04:05:55.572Z,41.20
2019-02-15T04:08:23.813Z,41.20
2019-02-15T04:10:52.058Z,41.20
2019-02-15T04:13:20.276Z,41.20
2019-02-15T04:15:48.743Z,41.20
2019-02-15T04:18:16.966Z,41.30
2019-02-15T04:20:45.219Z,41.20
2019-02-15T04:23:13.516Z,41.20
2019-02-15T04:25:41.755Z,41.20
2019-02-15T04:28:10.005Z,41.20
2019-02-15T04:30:38.245Z,41.30
2019-02-15T04:33:06.484Z,41.30
2019-02-15T04:35:34.755Z,41.20
2019-02-15T04:38:03.009Z,41.20
2019-02-15T04:40:31.256Z,41.20
2019-02-15T04:42:59.484Z,41.20
2019-02-15T04:45:27.737Z,41.20
2019-02-15T04:47:55.979Z,41.30
2019-02-15T04:50:24.199Z,41.30
2019-02-15T04:52:52.680Z,41.20
2019-02-15T04:55:20.905Z,41.20
2019-02-15T04:57:49.167Z,41.20
2019-02-15T05:00:17.396Z,41.20
2019-02-15T05:02:45.647Z,41.90
2019-02-15T05:05:13.893Z,41.30
2019-02-15T05:07:42.122Z,41.30
2019-02-15T05:10:10.376Z,41.20
2019-02-15T05:12:38.594Z,41.30
2019-02-15T05:15:08.154Z,41.30
2019-02-15T05:17:36.404Z,41.20
2019-02-15T05:20:06.284Z,41.30
2019-02-15T05:22:34.516Z,41.20
2019-02-15T05:25:02.789Z,41.20
2019-02-15T05:27:31.095Z,41.30
2019-02-15T05:29:59.432Z,41.30
2019-02-15T05:32:27.744Z,41.30
2019-02-15T05:34:56.000Z,41.30
2019-02-15T05:37:24.211Z,41.30
2019-02-15T05:39:52.459Z,41.30
2019-02-15T05:42:20.684Z,41.30
2019-02-15T05:44:48.925Z,41.30
2019-02-15T05:47:17.176Z,41.40
2019-02-15T05:49:45.420Z,41.30
2019-02-15T05:52:13.666Z,41.30
2019-02-15T05:54:41.888Z,41.30
2019-02-15T05:57:10.132Z,41.40
2019-02-15T05:59:38.597Z,41.30
2019-02-15T06:02:06.912Z,41.30
2019-02-15T06:04:35.168Z,41.40
2019-02-15T06:07:03.610Z,41.40
2019-02-15T06:09:31.855Z,41.40
2019-02-15T06:12:00.078Z,41.40
2019-02-15T06:14:28.317Z,41.40
2019-02-15T06:16:56.563Z,41.40
2019-02-15T06:19:25.083Z,41.40
2019-02-15T06:21:53.361Z,41.40
2019-02-15T06:24:21.584Z,41.40
2019-02-15T06:26:49.817Z,41.40
2019-02-15T06:29:18.041Z,41.40
2019-02-15T06:31:46.275Z,41.40
2019-02-15T06:34:14.731Z,41.40
2019-02-15T06:36:42.963Z,41.50
2019-02-15T06:39:11.224Z,41.40
2019-02-15T06:41:39.475Z,41.50
2019-02-15T06:44:07.733Z,41.50
2019-02-15T06:46:35.987Z,41.50
2019-02-15T06:49:04.367Z,41.50
2019-02-15T06:51:32.696Z,41.50
2019-02-15T06:54:00.941Z,41.50
2019-02-15T06:56:29.185Z,41.60
2019-02-15T06:59:15.481Z,41.60
2019-02-15T07:01:50.980Z,41.60
2019-02-15T07:04:20.890Z,41.60
2019-02-15T07:06:49.138Z,41.70
2019-02-15T07:09:17.349Z,41.70
2019-02-15T07:11:45.672Z,41.70
2019-02-15T07:14:14.157Z,41.80
2019-02-15T07:16:42.456Z,41.80
2019-02-15T07:19:10.719Z,41.80
2019-02-15T07:21:39.037Z,41.80
2019-02-15T07:24:07.308Z,41.70
2019-02-15T07:26:35.564Z,41.70
2019-02-15T07:29:03.815Z,41.70
2019-02-15T07:31:32.067Z,41.70
2019-02-15T07:34:00.307Z,41.80
2019-02-15T07:36:28.555Z,41.70
2019-02-15T07:38:56.816Z,41.70
2019-02-15T07:41:25.059Z,41.70
2019-02-15T07:43:53.324Z,41.70
2019-02-15T07:46:21.555Z,41.70
2019-02-15T07:48:49.791Z,41.80
2019-02-15T07:51:18.048Z,41.80
2019-02-15T07:53:46.291Z,41.80
2019-02-15T07:56:14.590Z,41.90
2019-02-15T07:58:42.889Z,41.90
2019-02-15T08:01:11.160Z,41.90
2019-02-15T08:03:39.684Z,41.90
2019-02-15T08:06:07.936Z,41.90
2019-02-15T08:08:36.244Z,42.00
2019-02-15T08:11:04.484Z,42.00
2019-02-15T08:13:32.711Z,42.00
2019-02-15T08:16:02.803Z,42.00
2019-02-15T08:18:30.917Z,42.00
2019-02-15T08:20:59.123Z,42.00
2019-02-15T08:23:27.393Z,42.00
2019-02-15T08:25:55.613Z,41.90
2019-02-15T08:28:23.940Z,41.80
2019-02-15T08:30:52.182Z,41.70
2019-02-15T08:33:20.399Z,41.70
2019-02-15T08:35:48.663Z,41.70
2019-02-15T08:38:16.899Z,41.60
2019-02-15T08:40:45.395Z,41.60
2019-02-15T08:43:13.679Z,41.60
2019-02-15T08:45:41.930Z,41.60
2019-02-15T08:48:10.241Z,41.50
2019-02-15T08:50:38.458Z,41.50
2019-02-15T08:53:06.744Z,41.40
2019-02-15T08:55:35.921Z,41.30
2019-02-15T08:58:04.376Z,41.30
2019-02-15T09:00:32.605Z,41.30
2019-02-15T09:03:00.837Z,41.20
2019-02-15T09:05:29.099Z,41.20
2019-02-15T09:07:57.320Z,41.10
2019-02-15T09:10:25.544Z,41.00
2019-02-15T09:12:53.778Z,41.00
2019-02-15T09:15:23.348Z,40.90
2019-02-15T09:17:51.599Z,40.90
2019-02-15T09:20:19.821Z,40.80
2019-02-15T09:22:48.126Z,40.80
2019-02-15T09:25:16.396Z,40.50
2019-02-15T09:27:46.268Z,40.70
2019-02-15T09:30:14.796Z,40.80
2019-02-15T09:32:43.044Z,40.80
2019-02-15T09:35:11.915Z,41.10
2019-02-15T09:37:40.161Z,41.00
2019-02-15T09:40:09.995Z,41.00
2019-02-15T09:42:38.229Z,41.00
2019-02-15T09:45:09.871Z,40.90
2019-02-15T09:47:38.119Z,40.80
2019-02-15T09:50:09.841Z,40.80
2019-02-15T09:52:38.648Z,40.80
2019-02-15T09:55:06.898Z,40.70
2019-02-15T09:57:35.108Z,40.70
2019-02-15T10:00:03.423Z,40.70
2019-02-15T10:02:31.656Z,40.70
2019-02-15T10:04:59.888Z,40.70
2019-02-15T10:07:28.360Z,40.80
2019-02-15T10:09:56.605Z,40.80
2019-02-15T10:12:24.828Z,40.80
2019-02-15T10:14:53.056Z,41.00
2019-02-15T10:17:21.316Z,41.00
2019-02-15T10:19:49.560Z,41.00
2019-02-15T10:22:17.788Z,40.90
2019-02-15T10:24:46.081Z,40.80
2019-02-15T10:27:14.311Z,40.70
2019-02-15T10:29:42.566Z,40.70
2019-02-15T10:32:10.867Z,40.70
2019-02-15T10:34:39.422Z,40.60
2019-02-15T10:37:07.644Z,40.50
2019-02-15T10:39:35.899Z,40.60
2019-02-15T10:42:04.123Z,40.50
2019-02-15T10:44:32.344Z,40.70
2019-02-15T10:47:00.596Z,40.60
2019-02-15T10:49:28.820Z,40.50
2019-02-15T10:51:57.076Z,40.80
2019-02-15T10:54:25.329Z,40.60
2019-02-15T10:56:53.593Z,40.60
2019-02-15T10:59:21.851Z,40.50
2019-02-15T11:01:50.068Z,36.60
2019-02-15T11:04:18.552Z,34.20
2019-02-15T11:06:46.783Z,34.30
2019-02-15T11:09:15.004Z,34.00
2019-02-15T11:11:43.255Z,33.40
2019-02-15T11:14:11.476Z,33.30
2019-02-15T11:16:47.036Z,32.50
2019-02-15T11:19:09.692Z,33.30
2019-02-15T11:21:38.173Z,34.10
2019-02-15T11:24:06.430Z,33.80
2019-02-15T11:26:34.648Z,33.90
2019-02-15T11:29:02.875Z,32.90
2019-02-15T11:31:31.099Z,33.30
2019-02-15T11:33:59.352Z,33.90
2019-02-15T11:36:27.590Z,33.50
2019-02-15T11:38:55.807Z,33.80
2019-02-15T11:41:24.075Z,33.30
2019-02-15T11:43:52.312Z,32.20
2019-02-15T11:46:20.548Z,32.60
2019-02-15T11:48:48.776Z,32.50
2019-02-15T11:51:17.016Z,32.20
2019-02-15T11:53:45.260Z,32.30
2019-02-15T11:56:13.506Z,31.90
2019-02-15T11:58:41.736Z,30.70
2019-02-15T12:01:09.991Z,29.80
2019-02-15T12:03:38.232Z,30.00
2019-02-15T12:06:06.489Z,30.00
2019-02-15T12:08:34.732Z,29.40
2019-02-15T12:11:03.025Z,29.40
2019-02-15T12:13:31.366Z,29.50
2019-02-15T12:15:59.607Z,29.20
2019-02-15T12:18:27.863Z,28.60
2019-02-15T12:20:56.087Z,29.30
2019-02-15T12:23:24.360Z,29.10
2019-02-15T12:25:52.667Z,29.10
2019-02-15T12:28:20.912Z,28.90
2019-02-15T12:30:49.200Z,29.60
2019-02-15T12:33:17.716Z,29.20
2019-02-15T12:35:46.226Z,29.30
2019-02-15T12:38:14.470Z,29.10
2019-02-15T12:40:42.932Z,29.20
2019-02-15T12:43:11.172Z,29.40
2019-02-15T12:45:39.425Z,29.40
2019-02-15T12:48:07.679Z,29.20
2019-02-15T12:50:35.934Z,28.40
2019-02-15T12:53:04.317Z,27.30
2019-02-15T12:55:32.606Z,26.50
2019-02-15T12:58:01.052Z,24.90
2019-02-15T13:00:29.326Z,24.30
2019-02-15T13:02:57.712Z,24.00
2019-02-15T13:05:26.010Z,23.70
2019-02-15T13:07:54.288Z,23.30
2019-02-15T13:10:24.203Z,23.00
2019-02-15T13:12:52.444Z,23.00
2019-02-15T13:15:20.650Z,22.80
2019-02-15T13:17:49.443Z,22.50
2019-02-15T13:20:17.715Z,22.00
2019-02-15T13:22:45.955Z,21.80
2019-02-15T13:25:14.422Z,21.50
2019-02-15T13:27:42.893Z,21.00
2019-02-15T13:30:12.977Z,20.20
2019-02-15T13:32:41.700Z,19.70
2019-02-15T13:35:14.992Z,19.50
2019-02-15T13:37:43.224Z,19.20
2019-02-15T13:40:11.773Z,18.90
2019-02-15T13:42:40.104Z,19.10
2019-02-15T13:45:12.319Z,19.10
2019-02-15T13:47:40.809Z,18.90
2019-02-15T13:50:13.109Z,19.20
2019-02-15T13:52:41.396Z,19.30
2019-02-15T13:55:10.280Z,19.00
2019-02-15T13:57:38.539Z,19.00
2019-02-15T14:00:14.240Z,19.30
2019-02-15T14:02:42.467Z,19.70
2019-02-15T14:05:12.638Z,20.90
2019-02-15T14:07:40.904Z,21.70
2019-02-15T14:10:13.273Z,22.30
2019-02-15T14:12:41.486Z,22.90
2019-02-15T14:15:10.663Z,23.20
2019-02-15T14:17:44.743Z,23.40
2019-02-15T14:20:11.620Z,23.90
2019-02-15T14:22:39.854Z,24.20
2019-02-15T14:25:09.672Z,24.40
2019-02-15T14:27:37.947Z,24.80
2019-02-15T14:30:09.482Z,25.00
2019-02-15T14:32:37.727Z,25.40
2019-02-15T14:35:08.092Z,25.70
2019-02-15T14:37:36.352Z,26.30
2019-02-15T14:40:06.316Z,26.60
2019-02-15T14:42:34.559Z,26.90
2019-02-15T14:45:03.044Z,27.30
2019-02-15T14:47:31.264Z,27.90
2019-02-15T14:49:59.528Z,28.20
2019-02-15T14:52:27.757Z,28.50
2019-02-15T14:54:55.996Z,28.80
2019-02-15T14:57:24.251Z,29.00
2019-02-15T14:59:52.712Z,29.40
2019-02-15T15:02:20.957Z,29.50
2019-02-15T15:04:49.208Z,29.80
2019-02-15T15:07:17.437Z,30.10
2019-02-15T15:09:45.700Z,30.40
2019-02-15T15:12:13.981Z,30.60
2019-02-15T15:14:42.196Z,30.90
2019-02-15T15:17:10.449Z,31.20
2019-02-15T15:19:38.704Z,31.50
2019-02-15T15:22:06.925Z,32.00
2019-02-15T15:24:35.412Z,32.00
2019-02-15T15:27:03.642Z,32.20
2019-02-15T15:29:31.885Z,32.70
2019-02-15T15:32:00.343Z,32.80
2019-02-15T15:34:28.596Z,32.80
2019-02-15T15:36:56.829Z,33.10
2019-02-15T15:39:25.126Z,33.40
2019-02-15T15:41:53.406Z,33.40
2019-02-15T15:44:21.655Z,33.40
2019-02-15T15:46:49.902Z,33.70
2019-02-15T15:49:18.159Z,33.70
2019-02-15T15:51:46.382Z,33.70
2019-02-15T15:54:14.631Z,33.80
2019-02-15T15:56:42.872Z,34.10
2019-02-15T15:59:11.160Z,34.10
2019-02-15T16:01:39.636Z,34.30
2019-02-15T16:04:07.888Z,34.40
2019-02-15T16:06:36.368Z,34.50
2019-02-15T16:09:05.175Z,34.50
2019-02-15T16:11:33.404Z,34.70
2019-02-15T16:14:01.901Z,34.90
2019-02-15T16:16:30.149Z,35.00
2019-02-15T16:18:58.364Z,35.20
2019-02-15T16:21:26.808Z,35.10
2019-02-15T16:23:55.036Z,35.20
2019-02-15T16:26:23.303Z,35.40
2019-02-15T16:28:51.639Z,35.60
2019-02-15T16:31:19.896Z,35.50
2019-02-15T16:33:48.137Z,35.60
2019-02-15T16:36:16.592Z,35.60
2019-02-15T16:38:44.853Z,35.80
2019-02-15T16:41:13.079Z,36.00
2019-02-15T16:43:41.340Z,35.90
2019-02-15T16:46:09.579Z,36.20
2019-02-15T16:48:42.114Z,36.20
2019-02-15T16:51:07.765Z,36.30
2019-02-15T16:53:36.017Z,36.40
2019-02-15T16:56:04.266Z,36.40
2019-02-15T16:58:32.491Z,36.50
2019-02-15T17:01:00.831Z,36.60
2019-02-15T17:03:29.081Z,36.90
2019-02-15T17:05:57.384Z,36.90
2019-02-15T17:08:25.628Z,36.90
2019-02-15T17:10:53.873Z,37.00
2019-02-15T17:13:22.356Z,37.00
2019-02-15T17:15:50.595Z,37.10
2019-02-15T17:18:18.852Z,37.00
2019-02-15T17:20:47.081Z,37.30
2019-02-15T17:23:15.356Z,37.40
2019-02-15T17:25:45.709Z,37.60
2019-02-15T17:28:13.799Z,37.60
2019-02-15T17:30:42.045Z,37.50
2019-02-15T17:33:10.297Z,37.70
2019-02-15T17:35:38.516Z,37.70
2019-02-15T17:38:06.787Z,37.60
2019-02-15T17:40:35.050Z,37.80
2019-02-15T17:43:03.361Z,38.00
2019-02-15T17:45:31.832Z,37.90
2019-02-15T17:48:01.000Z,37.80
2019-02-15T17:50:29.389Z,37.90
2019-02-15T17:52:57.631Z,37.90
2019-02-15T17:55:25.870Z,37.90
2019-02-15T17:57:54.112Z,38.00
2019-02-15T18:00:25.971Z,38.20
2019-02-15T18:02:53.990Z,38.20
2019-02-15T18:05:22.257Z,38.20
2019-02-15T18:07:50.486Z,38.10
2019-02-15T18:10:18.721Z,38.10
2019-02-15T18:12:46.972Z,38.10
2019-02-15T18:15:15.236Z,38.10
2019-02-15T18:17:43.448Z,38.10
2019-02-15T18:20:11.698Z,38.20
2019-02-15T18:22:40.183Z,38.20
2019-02-15T18:25:08.788Z,38.30
2019-02-15T18:27:37.034Z,38.20
2019-02-15T18:30:11.055Z,38.30
2019-02-15T18:32:39.296Z,38.30
2019-02-15T18:35:07.538Z,38.40
2019-02-15T18:37:35.746Z,38.50
2019-02-15T18:40:05.536Z,38.50
2019-02-15T18:42:33.758Z,38.50
2019-02-15T18:45:02.013Z,38.50
2019-02-15T18:47:30.255Z,38.50
2019-02-15T18:49:58.471Z,38.60
2019-02-15T18:52:26.725Z,38.60
2019-02-15T18:54:54.940Z,38.50
2019-02-15T18:57:23.191Z,38.40
2019-02-15T18:59:51.407Z,38.60
2019-02-15T19:02:19.657Z,38.50
2019-02-15T19:04:47.884Z,38.50
2019-02-15T19:07:16.207Z,38.50
2019-02-15T19:09:44.441Z,38.50
2019-02-15T19:12:12.688Z,38.60
2019-02-15T19:14:40.904Z,38.50
2019-02-15T19:17:09.165Z,38.50
2019-02-15T19:19:37.401Z,38.50
2019-02-15T19:22:05.727Z,38.60
2019-02-15T19:24:33.947Z,38.60
2019-02-15T19:27:02.429Z,38.60
2019-02-15T19:29:30.676Z,38.60
2019-02-15T19:31:58.927Z,38.60
2019-02-15T19:34:27.165Z,38.70
2019-02-15T19:36:55.388Z,38.70
2019-02-15T19:39:23.629Z,38.60
2019-02-15T19:41:52.099Z,38.80
2019-02-15T19:44:20.363Z,38.70
2019-02-15T19:46:48.588Z,38.80
2019-02-15T19:49:16.816Z,38.90
2019-02-15T19:51:45.124Z,38.90
2019-02-15T19:54:13.457Z,38.90
2019-02-15T19:56:41.692Z,38.90
2019-02-15T19:59:09.932Z,38.90
2019-02-15T20:01:38.147Z,38.90
2019-02-15T20:04:06.398Z,39.00
2019-02-15T20:06:34.612Z,39.00
2019-02-15T20:09:02.869Z,39.10
2019-02-15T20:11:31.131Z,39.00
2019-02-15T20:14:00.076Z,39.10
2019-02-15T20:16:28.505Z,39.20
2019-02-15T20:18:56.724Z,39.20
2019-02-15T20:21:24.969Z,39.30
2019-02-15T20:23:53.221Z,39.30
2019-02-15T20:26:21.535Z,39.30
2019-02-15T20:28:50.904Z,39.30
2019-02-15T20:31:19.185Z,39.30
2019-02-15T20:33:47.403Z,39.40
2019-02-15T20:36:15.675Z,39.30
2019-02-15T20:38:43.926Z,39.30
2019-02-15T20:41:12.149Z,39.30
2019-02-15T20:43:40.404Z,39.50
2019-02-15T20:46:08.635Z,39.50
2019-02-15T20:48:37.118Z,39.50
2019-02-15T20:51:05.408Z,39.50
2019-02-15T20:53:33.649Z,39.50
2019-02-15T20:56:02.092Z,39.60
2019-02-15T20:58:30.339Z,39.60
2019-02-15T21:00:58.579Z,39.60
2019-02-15T21:03:26.803Z,39.70
2019-02-15T21:05:55.057Z,39.70
2019-02-15T21:08:23.297Z,39.70
2019-02-15T21:10:55.097Z,39.70
2019-02-15T21:13:21.520Z,39.80
2019-02-15T21:15:49.735Z,39.80
2019-02-15T21:18:18.066Z,39.80
2019-02-15T21:20:46.539Z,39.80
2019-02-15T21:23:14.749Z,39.80
2019-02-15T21:25:42.992Z,39.70
2019-02-15T21:28:11.216Z,39.70
2019-02-15T21:30:39.686Z,39.70
2019-02-15T21:33:07.906Z,39.70
2019-02-15T21:35:36.151Z,39.70
2019-02-15T21:38:04.402Z,39.70
2019-02-15T21:40:32.653Z,39.70
2019-02-15T21:43:00.876Z,39.80
2019-02-15T21:45:29.323Z,39.70
2019-02-15T21:47:57.799Z,39.70
2019-02-15T21:50:26.043Z,39.70
2019-02-15T21:52:54.285Z,39.80
2019-02-15T21:55:22.585Z,39.80
2019-02-15T21:57:50.857Z,39.70
2019-02-15T22:00:21.502Z,39.60
2019-02-15T22:02:49.729Z,39.60
2019-02-15T22:05:18.020Z,39.70
2019-02-15T22:07:46.271Z,39.70
2019-02-15T22:10:14.488Z,39.70
2019-02-15T22:12:42.733Z,39.60
2019-02-15T22:15:12.624Z,39.70
2019-02-15T22:17:40.870Z,39.70
2019-02-15T22:20:11.435Z,39.70
2019-02-15T22:22:39.656Z,39.70
2019-02-15T22:25:08.315Z,39.70
2019-02-15T22:27:36.573Z,39.70
2019-02-15T22:30:15.004Z,39.80
2019-02-15T22:32:43.235Z,39.70
2019-02-15T22:35:11.483Z,39.70
2019-02-15T22:37:39.707Z,40.40
2019-02-15T22:40:26.401Z,39.70
2019-02-15T22:42:54.919Z,39.80
2019-02-15T22:45:23.150Z,39.90
2019-02-15T22:47:51.376Z,40.00
2019-02-15T22:50:19.620Z,40.00
2019-02-15T22:52:48.057Z,40.10
2019-02-15T22:55:16.364Z,40.10
2019-02-15T22:57:44.612Z,40.10
2019-02-15T23:00:21.796Z,40.20
2019-02-15T23:02:50.044Z,40.20
2019-02-15T23:05:18.496Z,40.20
2019-02-15T23:07:46.747Z,40.20
2019-02-15T23:10:14.976Z,40.30
2019-02-15T23:12:43.444Z,40.40
2019-02-15T23:15:11.704Z,40.30
2019-02-15T23:17:40.160Z,40.40
2019-02-15T23:20:08.391Z,40.30
2019-02-15T23:22:36.631Z,40.40
2019-02-15T23:25:06.889Z,40.40
2019-02-15T23:27:35.130Z,40.50
2019-02-15T23:30:03.437Z,40.50
2019-02-15T23:32:31.699Z,40.50
2019-02-15T23:34:59.951Z,40.50
2019-02-15T23:37:28.184Z,40.50
2019-02-15T23:39:56.440Z,40.60
2019-02-15T23:42:24.675Z,40.60
2019-02-15T23:44:52.923Z,40.50
2019-02-15T23:47:21.172Z,40.60
2019-02-15T23:49:49.392Z,40.60
2019-02-15T23:52:17.877Z,40.70
2019-02-15T23:54:46.092Z,40.80
2019-02-15T23:57:14.332Z,40.80
2019-02-15T23:59:42.564Z,40.70
